Waller, Pennsylvania
Current Conditions -  °F | °C
As of 6:35 PM on Saturday 25 Oct 2014 (Local Time) from KHZL Reporting Station
Overcast Overcast  
Wind Chill: 63°   Ceiling: 5000
Heat Index: 63°   Visibility: 10mi
Dew Point: 45°   Wind: 8mph
Humidity: 52%   Direction: 250°WSW
Pressure: 29.7"   Gusts: NA
Location:  41.2534°N, 76.3299°W
Report Text: KHZL 252235Z AUTO 25007KT 10SM OVC050 17/07 A2970 RMK AO2
Loading
Personal Weather Stations






























Interactive Weather Map
Tropical Storm Tracking
New forecast layout! Learn more

10-Day Weather Forecast

Advertisements
Track Severe Weather on mobile